Jemez Springs, Valles Caldera, New Mexico Weather observations

Data are for 10 minute period ending at time listed.
 Day   Time   Solar   Ave.   Ave.  Ave.  Vector  Max.   Baro.   Total    
  of    of     Rad.   Air    Rel.  Wind   Wind   Wind  Press.  Precip.   
Year   Day            Temp.  Hum.  Speed  Dir.   Gust                    
2015   (MST)  Kw/m2    F      %     mph   deg.    mph    mb.     in.     
-------------------------------------------------------------------------
  58   17:30   0.01   24.4    94    0.0     0     0.0   801.1    0.01 
  58   17:40   0.00   24.5    94    0.0     0     0.0   801.2    0.01 
  58   17:50   0.00   24.4    94    0.0     0     0.0   801.1    0.00 
  58   18:00   0.00   24.4    94    0.0     0     0.0   801.0    0.01 
  58   18:10   0.00   24.3    94    0.0     0     0.0   801.2    0.01 
  58   18:20   0.00   24.4    95    0.0     0     0.0   801.1    0.01 
  58   18:30   0.00   24.4    95    0.0     0     0.0   801.1    0.01 
  58   18:40   0.00   24.5    95    0.0   271     1.2   801.2    0.01 
  58   18:50   0.00   24.6    95    0.1   299     1.8   801.0    0.01 
  58   19:00   0.00   24.7    95    0.0     0     0.0   801.2    0.01 
  58   19:10   0.00   24.7    95    0.4   346     2.4   801.3    0.00 
  58   19:20   0.00   24.7    95    1.9    14     3.6   801.4    0.01 
  58   19:30   0.00   24.7    95    0.2   340     2.4   801.1    0.00 
  58   19:40   0.00   24.8    95    0.1   357     1.8   801.2    0.01 
  58   19:50   0.00   24.8    95    1.4    10     4.2   801.3    0.01 
  58   20:00   0.00   24.8    95    2.3   352     4.2   801.1    0.00 
  58   20:10   0.00   24.8    95    1.8   349     3.6   801.1    0.00 
  58   20:20   0.00   24.9    95    0.9     6     3.0   801.1    0.01 
  58   20:30   0.00   24.9    95    0.9   155     3.0   801.3    0.00 
  58   20:40   0.00   24.8    95    0.1   213     2.4   801.2    0.01 
  58   20:50   0.00   24.7    95    0.0     0     0.0   801.2    0.00 
  58   21:00   0.00   24.7    95    1.8   169     4.8   801.4    0.00 
  58   21:10   0.00   24.7    95    2.4   173     4.8   801.6    0.00 
  58   21:20   0.00   24.5    95    2.1   154     4.2   801.8    0.01 
  58   21:30   0.00   24.4    95    0.0     0     0.0   801.8    0.00 
  58   21:40   0.00   24.4    95    0.0   342     1.2   801.7    0.00 
  58   21:50   0.00   24.5    96    0.0   355     1.2   801.6    0.01 
  58   22:00   0.00   24.6    96    0.4    22     3.0   801.8    0.01 
  58   22:10   0.00   24.6    96    1.3   209     3.6   801.8    0.01 
  58   22:20   0.00   24.7    96    1.0   217     3.0   801.6    0.01 
  58   22:30   0.00   23.9    95    2.5   173     5.4   801.6    0.03 
  58   22:40   0.00   22.9    95    3.6   209     6.0   801.6    0.02 
  58   22:50   0.00   23.1    95    1.8   166     3.6   801.7    0.00 
  58   23:00   0.00   22.9    95    0.7   216     3.6   801.4    0.01 
  58   23:10   0.00   22.8    95    4.2   164     7.2   801.4    0.00 
  58   23:20   0.00   22.3    95    3.6   189     5.4   801.4    0.01 
  58   23:30   0.00   22.2    95    2.4   243     4.2   801.3    0.00 
  58   23:40   0.00   22.4    95    3.2   223     6.0   801.3    0.00 
  58   23:50   0.00   22.2    95    3.8   178     6.0   801.2    0.00 
  59    0:00   0.00   21.7    95    2.7   175     5.4   801.2    0.00 
  59    0:10   0.00   21.6    95    0.8   142     3.6   801.2    0.00 
  59    0:20   0.00   21.6    95    0.0     0     0.0   801.2    0.01 
  59    0:30   0.00   21.6    95    0.0     0     0.0   801.2    0.00 
  59    0:40   0.00   21.7    95    0.0    60     1.2   801.2    0.00 
  59    0:50   0.00   21.8    95    0.0     0     0.0   801.2    0.00 
  59    1:00   0.00   21.9    95    0.0     0     0.0   801.2    0.00 
  59    1:10   0.00   22.0    95    0.7   160     3.6   801.2    0.00 
  59    1:20   0.00   21.9    95    0.0   175     1.2   801.2    0.00 
  59    1:30   0.00   21.9    95    0.0     0     0.0   801.2    0.00 
  59    1:40   0.00   21.9    95    0.0   204     1.2   801.3    0.00 
  59    1:50   0.00   21.9    95    0.0     0     0.0   801.2    0.00 
  59    2:00   0.00   22.0    95    0.1    19     2.4   801.1    0.00 
  59    2:10   0.00   22.1    95    0.0     0     0.0   801.0    0.01 
  59    2:20   0.00   22.2    95    0.0   278     1.2   800.7    0.00 
  59    2:30   0.00   22.3    95    0.0    66     1.2   800.6    0.00 
  59    2:40   0.00   22.4    95    0.0    55     1.2   800.6    0.00 
  59    2:50   0.00   22.6    95    0.0   136     1.2   800.6    0.00 
  59    3:00   0.00   22.8    95    0.1   194     1.8   800.6    0.01 
  59    3:10   0.00   22.9    95    0.0   181     1.2   800.5    0.00 
  59    3:20   0.00   22.8    95    0.2   187     1.8   800.6    0.00 
  59    3:30   0.00   22.6    95    0.1   191     1.2   800.5    0.01 
  59    3:40   0.00   22.5    95    0.1   184     1.2   800.7    0.00 
  59    3:50   0.00   22.5    95    1.2   189     3.6   800.7    0.00 
  59    4:00   0.00   22.5    95    1.6   172     4.2   800.8    0.01 
  59    4:10   0.00   22.4    95    2.5   176     4.2   800.8    0.01 
  59    4:20   0.00   22.1    95    2.1   164     3.6   800.8    0.01 
  59    4:30   0.00   22.0    95    1.4   186     3.6   800.8    0.01 
  59    4:40   0.00   21.9    95    0.0   225     1.2   800.9    0.02 
  59    4:50   0.00   21.5    95    2.1   183     6.0   801.2    0.03 
  59    5:00   0.00   21.1    94    1.3   177     4.8   801.5    0.02 
  59    5:10   0.00   21.0    94    0.8   184     3.0   801.5    0.02 
  59    5:20   0.00   20.8    94    0.0   158     1.2   801.6    0.02 
  59    5:30   0.00   20.8    94    0.0   184     1.2   801.5    0.02 
  59    5:40   0.00   20.9    94    0.0    77     1.2   801.5    0.02 
  59    5:50   0.00   21.0    94    0.0   259     1.8   801.5    0.01 
  59    6:00   0.00   21.3    95    0.0     6     1.2   801.5    0.02 
  59    6:10   0.00   21.6    95    0.0   314     1.2   801.4    0.01 
  59    6:20   0.00   21.8    95    0.0   275     1.2   801.4    0.01 
  59    6:30   0.00   22.0    95    0.1   179     1.8   801.5    0.01 
  59    6:40   0.00   22.0    95    0.0   175     1.8   801.6    0.01 
  59    6:50   0.00   22.0    95    0.0   197     1.2   801.8    0.02 
  59    7:00   0.00   22.1    95    0.0   257     1.2   801.8    0.01 
  59    7:10   0.00   22.2    95    0.0   359     1.2   801.6    0.01 
  59    7:20   0.00   22.6    95    0.0     8     1.2   801.6    0.01 
  59    7:30   0.00   23.0    95    0.0   289     1.8   801.8    0.01 
  59    7:40   0.01   23.4    95    0.0   275     1.8   801.8    0.00 
  59    7:50   0.01   23.8    95    0.0   272     1.2   801.9    0.01 
  59    8:00   0.01   24.2    95    0.0   331     1.2   802.0    0.02 
  59    8:10   0.01   24.4    95    0.0     0     0.0   802.1    0.01 
  59    8:20   0.01   24.4    95    0.0   297     1.2   802.3    0.01 
  59    8:30   0.01   24.6    95    0.0   194     1.2   802.5    0.01 
  59    8:40   0.02   24.9    95    0.0   183     1.2   802.5    0.00 
  59    8:50   0.02   25.7    95    0.0     5     1.2   802.6    0.00 
  59    9:00   0.02   25.7    94    0.0    93     0.9   802.6    0.01 
  59    9:10   0.01   25.7    94    0.0     0     0.0   802.7    0.02 
  59    9:20   0.02   26.3    94    0.0   305     0.9   802.8    0.01 
  59    9:30   0.02   26.2    93    0.0   358     1.2   802.9    0.00 
  59    9:40   0.02   26.6    94    0.0   227     1.2   802.9    0.01 
  59    9:50   0.02   26.8    93    0.0     0     0.0   802.9    0.00 
  59   10:00   0.03   27.1    93    0.0   123     1.2   802.9    0.00 
  59   10:10   0.03   27.9    92    0.0     8     1.2   802.9    0.00 
  59   10:20   0.04   28.2    90    0.1   357     1.8   802.9    0.01 
  59   10:30   0.04   27.7    89    0.2    22     1.8   802.9    0.00 
  59   10:40   0.04   28.2    89    0.1    16     1.2   803.1    0.00 
  59   10:50   0.04   29.6    88    0.1   312     1.2   803.1    0.01 
  59   11:00   0.04   30.6    88    0.0   203     1.2   803.1    0.01 
  59   11:10   0.04   30.6    85    0.1   182     1.2   803.3    0.01 
  59   11:20   0.04   29.8    86    0.1   174     1.2   803.3    0.01 
  59   11:30   0.03   29.3    87    0.0   180     1.2   803.3    0.01 
  59   11:40   0.03   30.0    87    0.0   258     1.2   803.4    0.00 
  59   11:50   0.04   30.2    85    0.1   203     1.8   803.4    0.00 
  59   12:00   0.04   30.1    84    0.0   139     1.2   803.3    0.01 
  59   12:10   0.04   29.5    84    0.8   140     3.0   803.1    0.00 
  59   12:20   0.04   29.5    84    0.2   157     1.8   803.1    0.01 
  59   12:30   0.04   30.5    84    0.0   302     1.2   803.1    0.00 
  59   12:40   0.05   30.4    81    0.1   202     2.4   803.0    0.00 
  59   12:50   0.05   30.3    81    3.1   256     6.0   803.0    0.00 
  59   13:00   0.05   30.9    80    2.6   298     6.0   802.9    0.00 
  59   13:10   0.05   31.1    78    0.5   109     2.4   802.7    0.00 
  59   13:20   0.04   30.9    77    0.1    86     1.2   802.7    0.01 
  59   13:30   0.03   30.2    78    0.0    77     1.2   802.7    0.02 
  59   13:40   0.03   30.4    80    0.1    10     1.2   802.6    0.00 
  59   13:50   0.02   30.5    79    0.0   356     1.2   802.7    0.00 
  59   14:00   0.03   30.5    81    0.1   343     1.2   802.7    0.00 
  59   14:10   0.03   31.4    80    1.0   264     4.2   802.5    0.00 
  59   14:20   0.06   31.6    78    2.2   352     4.2   802.4    0.00 
  59   14:30   0.04   31.9    77    1.7   352     4.2   802.4    0.01 
  59   14:40   0.03   31.1    80    0.4    20     2.4   802.5    0.00 
  59   14:50   0.04   31.3    80    0.7   118     2.4   802.6    0.00 
  59   15:00   0.04   32.0    79    0.4   242     2.4   802.6    0.00 
  59   15:10   0.04   32.5    77    0.8    90     2.4   802.7    0.00 
  59   15:20   0.04   32.5    77    0.8    43     2.4   802.8    0.00 
  59   15:30   0.03   32.1    78    0.9   359     2.4   802.8    0.01 
  59   15:40   0.05   32.5    79    2.0   353     4.2   802.7    0.00 
  59   15:50   0.04   32.3    80    2.9    16     4.8   802.8    0.00 
  59   16:00   0.05   32.3    80    2.3    16     4.8   802.8    0.00 
  59   16:10   0.03   32.6    80    1.3    23     4.2   802.9    0.00 
  59   16:20   0.05   33.0    79    1.6   342     3.0   803.0    0.00 
  59   16:30   0.04   32.8    80    2.3    22     3.6   803.1    0.00 
  59   16:40   0.05   32.7    81    3.1     7     5.4   803.0    0.00 
  59   16:50   0.02   32.6    83    3.1   355     5.4   803.2    0.00 
  59   17:00   0.02   32.1    84    2.7   349     4.8   803.2    0.01 
  59   17:10   0.02   32.1    84    3.9   337     6.0   803.2    0.00 
  59   17:20   0.02   32.1    84    3.9   342     6.6   803.3    0.00 

Return to Jemez Springs, Valles Caldera graphs page.


Western Regional Climate Center,wrcc@dri.edu